sensor_id;sensor_type;location;lat;lon;timestamp;temperature;humidity
58469;DHT22;44257;44.804;10.220;2023-08-06T00:00:39;19.20;99.90
58469;DHT22;44257;44.804;10.220;2023-08-06T00:03:05;19.20;99.90
58469;DHT22;44257;44.804;10.220;2023-08-06T00:05:31;19.10;99.90
58469;DHT22;44257;44.804;10.220;2023-08-06T00:07:57;18.90;99.90
58469;DHT22;44257;44.804;10.220;2023-08-06T00:10:23;18.80;99.90
58469;DHT22;44257;44.804;10.220;2023-08-06T00:12:48;18.70;99.90
58469;DHT22;44257;44.804;10.220;2023-08-06T00:15:14;18.60;99.90
58469;DHT22;44257;44.804;10.220;2023-08-06T00:17:40;18.50;99.90
58469;DHT22;44257;44.804;10.220;2023-08-06T00:20:06;18.40;99.90
58469;DHT22;44257;44.804;10.220;2023-08-06T00:22:36;18.30;99.90
58469;DHT22;44257;44.804;10.220;2023-08-06T00:25:03;18.20;99.90
58469;DHT22;44257;44.804;10.220;2023-08-06T00:27:29;18.10;99.90
58469;DHT22;44257;44.804;10.220;2023-08-06T00:29:55;18.10;99.90
58469;DHT22;44257;44.804;10.220;2023-08-06T00:32:22;18.00;99.90
58469;DHT22;44257;44.804;10.220;2023-08-06T00:34:48;18.00;99.90
58469;DHT22;44257;44.804;10.220;2023-08-06T00:37:16;18.00;99.90
58469;DHT22;44257;44.804;10.220;2023-08-06T00:39:42;17.90;99.90
58469;DHT22;44257;44.804;10.220;2023-08-06T00:42:09;17.90;99.90
58469;DHT22;44257;44.804;10.220;2023-08-06T00:44:36;17.90;99.90
58469;DHT22;44257;44.804;10.220;2023-08-06T00:47:02;17.90;99.90
58469;DHT22;44257;44.804;10.220;2023-08-06T00:49:28;17.90;99.90
58469;DHT22;44257;44.804;10.220;2023-08-06T00:51:54;17.90;99.90
58469;DHT22;44257;44.804;10.220;2023-08-06T00:54:20;17.70;99.90
58469;DHT22;44257;44.804;10.220;2023-08-06T00:56:46;17.80;99.90
58469;DHT22;44257;44.804;10.220;2023-08-06T00:59:13;17.70;99.90
58469;DHT22;44257;44.804;10.220;2023-08-06T01:01:39;17.70;99.90
58469;DHT22;44257;44.804;10.220;2023-08-06T01:04:05;17.70;99.90
58469;DHT22;44257;44.804;10.220;2023-08-06T01:06:47;17.70;99.90
58469;DHT22;44257;44.804;10.220;2023-08-06T01:15:11;17.70;99.90
58469;DHT22;44257;44.804;10.220;2023-08-06T01:17:40;17.70;99.90
58469;DHT22;44257;44.804;10.220;2023-08-06T01:20:06;17.70;99.90
58469;DHT22;44257;44.804;10.220;2023-08-06T01:22:34;17.70;99.90
58469;DHT22;44257;44.804;10.220;2023-08-06T01:25:00;17.70;99.90
58469;DHT22;44257;44.804;10.220;2023-08-06T01:27:36;17.70;99.90
58469;DHT22;44257;44.804;10.220;2023-08-06T01:30:12;17.70;99.90
58469;DHT22;44257;44.804;10.220;2023-08-06T01:32:43;17.70;99.90
58469;DHT22;44257;44.804;10.220;2023-08-06T01:35:12;17.80;99.90
58469;DHT22;44257;44.804;10.220;2023-08-06T01:37:39;17.70;99.90
58469;DHT22;44257;44.804;10.220;2023-08-06T01:40:10;17.80;99.90
58469;DHT22;44257;44.804;10.220;2023-08-06T01:42:37;17.80;99.90
58469;DHT22;44257;44.804;10.220;2023-08-06T01:45:04;17.80;99.90
58469;DHT22;44257;44.804;10.220;2023-08-06T01:47:30;17.80;99.90
58469;DHT22;44257;44.804;10.220;2023-08-06T01:49:56;17.90;99.90
58469;DHT22;44257;44.804;10.220;2023-08-06T01:52:22;17.90;99.90
58469;DHT22;44257;44.804;10.220;2023-08-06T01:54:48;18.00;99.90
58469;DHT22;44257;44.804;10.220;2023-08-06T01:57:14;18.10;99.90
58469;DHT22;44257;44.804;10.220;2023-08-06T01:59:41;18.10;99.90
58469;DHT22;44257;44.804;10.220;2023-08-06T02:02:06;18.10;99.90
58469;DHT22;44257;44.804;10.220;2023-08-06T02:04:32;18.20;99.90
58469;DHT22;44257;44.804;10.220;2023-08-06T02:06:58;18.20;99.90
58469;DHT22;44257;44.804;10.220;2023-08-06T02:09:25;18.20;99.90
58469;DHT22;44257;44.804;10.220;2023-08-06T02:11:51;18.10;99.90
58469;DHT22;44257;44.804;10.220;2023-08-06T02:14:17;18.10;99.90
58469;DHT22;44257;44.804;10.220;2023-08-06T02:16:43;18.10;99.90
58469;DHT22;44257;44.804;10.220;2023-08-06T02:19:09;18.10;99.90
58469;DHT22;44257;44.804;10.220;2023-08-06T02:21:34;18.00;99.90
58469;DHT22;44257;44.804;10.220;2023-08-06T02:24:00;18.00;99.90
58469;DHT22;44257;44.804;10.220;2023-08-06T02:26:26;18.00;99.90
58469;DHT22;44257;44.804;10.220;2023-08-06T02:28:55;18.00;99.90
58469;DHT22;44257;44.804;10.220;2023-08-06T02:31:21;17.90;99.90
58469;DHT22;44257;44.804;10.220;2023-08-06T02:33:46;18.00;99.90
58469;DHT22;44257;44.804;10.220;2023-08-06T02:36:12;18.00;99.90
58469;DHT22;44257;44.804;10.220;2023-08-06T02:38:38;18.00;99.90
58469;DHT22;44257;44.804;10.220;2023-08-06T02:41:04;18.10;99.90
58469;DHT22;44257;44.804;10.220;2023-08-06T02:43:31;18.20;99.90
58469;DHT22;44257;44.804;10.220;2023-08-06T02:45:57;18.20;99.90
58469;DHT22;44257;44.804;10.220;2023-08-06T02:48:23;18.20;99.90
58469;DHT22;44257;44.804;10.220;2023-08-06T02:50:49;18.40;99.90
58469;DHT22;44257;44.804;10.220;2023-08-06T02:53:15;18.40;99.90
58469;DHT22;44257;44.804;10.220;2023-08-06T02:55:48;18.40;99.90
58469;DHT22;44257;44.804;10.220;2023-08-06T02:58:17;18.40;99.90
58469;DHT22;44257;44.804;10.220;2023-08-06T03:01:02;18.30;99.90
58469;DHT22;44257;44.804;10.220;2023-08-06T03:03:31;18.20;99.90
58469;DHT22;44257;44.804;10.220;2023-08-06T03:05:59;18.10;99.90
58469;DHT22;44257;44.804;10.220;2023-08-06T03:08:41;18.00;99.90
58469;DHT22;44257;44.804;10.220;2023-08-06T03:11:07;17.90;99.90
58469;DHT22;44257;44.804;10.220;2023-08-06T03:13:33;17.80;99.90
58469;DHT22;44257;44.804;10.220;2023-08-06T03:16:00;17.80;99.90
58469;DHT22;44257;44.804;10.220;2023-08-06T03:18:28;17.70;99.90
58469;DHT22;44257;44.804;10.220;2023-08-06T03:20:56;17.70;99.90
58469;DHT22;44257;44.804;10.220;2023-08-06T03:23:24;17.70;99.90
58469;DHT22;44257;44.804;10.220;2023-08-06T03:25:49;17.70;99.90
58469;DHT22;44257;44.804;10.220;2023-08-06T03:28:16;17.60;99.90
58469;DHT22;44257;44.804;10.220;2023-08-06T03:30:42;17.60;99.90
58469;DHT22;44257;44.804;10.220;2023-08-06T03:33:10;17.60;99.90
58469;DHT22;44257;44.804;10.220;2023-08-06T03:35:36;17.70;99.90
58469;DHT22;44257;44.804;10.220;2023-08-06T03:38:02;17.70;99.90
58469;DHT22;44257;44.804;10.220;2023-08-06T03:40:28;17.70;99.90
58469;DHT22;44257;44.804;10.220;2023-08-06T03:42:55;17.60;99.90
58469;DHT22;44257;44.804;10.220;2023-08-06T03:45:21;17.60;99.90
58469;DHT22;44257;44.804;10.220;2023-08-06T03:47:48;17.50;99.90
58469;DHT22;44257;44.804;10.220;2023-08-06T03:50:14;17.50;99.90
58469;DHT22;44257;44.804;10.220;2023-08-06T03:52:41;17.40;99.90
58469;DHT22;44257;44.804;10.220;2023-08-06T03:55:07;17.40;99.90
58469;DHT22;44257;44.804;10.220;2023-08-06T03:57:33;17.40;99.90
58469;DHT22;44257;44.804;10.220;2023-08-06T03:59:59;17.40;99.90
58469;DHT22;44257;44.804;10.220;2023-08-06T04:02:27;17.40;99.90
58469;DHT22;44257;44.804;10.220;2023-08-06T04:04:53;17.40;99.90
58469;DHT22;44257;44.804;10.220;2023-08-06T04:07:19;17.40;99.90
58469;DHT22;44257;44.804;10.220;2023-08-06T04:09:54;17.30;99.90
58469;DHT22;44257;44.804;10.220;2023-08-06T04:12:21;17.30;99.90
58469;DHT22;44257;44.804;10.220;2023-08-06T04:14:47;17.20;99.90
58469;DHT22;44257;44.804;10.220;2023-08-06T04:17:13;17.20;99.90
58469;DHT22;44257;44.804;10.220;2023-08-06T04:19:39;17.20;99.90
58469;DHT22;44257;44.804;10.220;2023-08-06T04:22:05;17.20;99.90
58469;DHT22;44257;44.804;10.220;2023-08-06T04:24:31;17.20;99.90
58469;DHT22;44257;44.804;10.220;2023-08-06T04:26:56;17.20;99.90
58469;DHT22;44257;44.804;10.220;2023-08-06T04:29:22;17.20;99.90
58469;DHT22;44257;44.804;10.220;2023-08-06T04:31:49;17.10;99.90
58469;DHT22;44257;44.804;10.220;2023-08-06T04:34:15;17.10;99.90
58469;DHT22;44257;44.804;10.220;2023-08-06T04:36:42;17.00;99.90
58469;DHT22;44257;44.804;10.220;2023-08-06T04:39:09;17.00;99.90
58469;DHT22;44257;44.804;10.220;2023-08-06T04:41:34;17.00;99.90
58469;DHT22;44257;44.804;10.220;2023-08-06T04:44:00;17.00;99.90
58469;DHT22;44257;44.804;10.220;2023-08-06T04:46:26;17.00;99.90
58469;DHT22;44257;44.804;10.220;2023-08-06T04:48:52;17.00;99.90
58469;DHT22;44257;44.804;10.220;2023-08-06T04:51:18;17.10;99.90
58469;DHT22;44257;44.804;10.220;2023-08-06T04:53:44;17.10;99.90
58469;DHT22;44257;44.804;10.220;2023-08-06T04:56:09;17.10;99.90
58469;DHT22;44257;44.804;10.220;2023-08-06T04:58:35;17.20;99.90
58469;DHT22;44257;44.804;10.220;2023-08-06T05:01:01;17.20;99.90
58469;DHT22;44257;44.804;10.220;2023-08-06T05:03:26;17.30;99.90
58469;DHT22;44257;44.804;10.220;2023-08-06T05:05:52;17.40;99.90
58469;DHT22;44257;44.804;10.220;2023-08-06T05:08:18;17.50;99.90
58469;DHT22;44257;44.804;10.220;2023-08-06T05:10:45;17.60;99.90
58469;DHT22;44257;44.804;10.220;2023-08-06T05:13:11;17.70;99.90
58469;DHT22;44257;44.804;10.220;2023-08-06T05:15:37;17.90;99.90
58469;DHT22;44257;44.804;10.220;2023-08-06T05:18:03;18.00;99.90
58469;DHT22;44257;44.804;10.220;2023-08-06T05:20:29;18.20;99.90
58469;DHT22;44257;44.804;10.220;2023-08-06T05:22:55;18.60;99.90
58469;DHT22;44257;44.804;10.220;2023-08-06T05:25:20;19.00;99.90
58469;DHT22;44257;44.804;10.220;2023-08-06T05:27:46;19.50;99.90
58469;DHT22;44257;44.804;10.220;2023-08-06T05:30:12;20.10;99.90
58469;DHT22;44257;44.804;10.220;2023-08-06T05:32:38;20.70;99.90
58469;DHT22;44257;44.804;10.220;2023-08-06T05:35:04;21.30;99.90
58469;DHT22;44257;44.804;10.220;2023-08-06T05:37:31;21.70;99.90
58469;DHT22;44257;44.804;10.220;2023-08-06T05:39:57;22.10;99.90
58469;DHT22;44257;44.804;10.220;2023-08-06T05:42:23;22.60;99.90
58469;DHT22;44257;44.804;10.220;2023-08-06T05:44:48;23.00;99.90
58469;DHT22;44257;44.804;10.220;2023-08-06T05:47:14;23.40;99.90
58469;DHT22;44257;44.804;10.220;2023-08-06T05:49:40;23.90;99.90
58469;DHT22;44257;44.804;10.220;2023-08-06T05:52:06;24.30;99.90
58469;DHT22;44257;44.804;10.220;2023-08-06T05:54:34;24.60;99.90
58469;DHT22;44257;44.804;10.220;2023-08-06T05:57:00;25.00;99.90
58469;DHT22;44257;44.804;10.220;2023-08-06T05:59:26;25.30;99.80
58469;DHT22;44257;44.804;10.220;2023-08-06T06:01:51;25.60;98.90
58469;DHT22;44257;44.804;10.220;2023-08-06T06:04:17;25.70;98.30
58469;DHT22;44257;44.804;10.220;2023-08-06T06:06:43;25.80;98.10
58469;DHT22;44257;44.804;10.220;2023-08-06T06:09:10;26.00;98.30
58469;DHT22;44257;44.804;10.220;2023-08-06T06:11:36;26.20;99.20
58469;DHT22;44257;44.804;10.220;2023-08-06T06:14:01;26.50;96.90
58469;DHT22;44257;44.804;10.220;2023-08-06T06:16:27;27.00;96.10
58469;DHT22;44257;44.804;10.220;2023-08-06T06:18:53;27.20;94.50
58469;DHT22;44257;44.804;10.220;2023-08-06T06:21:20;27.30;93.70
58469;DHT22;44257;44.804;10.220;2023-08-06T06:23:46;27.30;93.80
58469;DHT22;44257;44.804;10.220;2023-08-06T06:26:12;27.50;93.80
58469;DHT22;44257;44.804;10.220;2023-08-06T06:28:38;27.60;93.70
58469;DHT22;44257;44.804;10.220;2023-08-06T06:31:04;27.40;93.60
58469;DHT22;44257;44.804;10.220;2023-08-06T06:33:30;27.20;94.10
58469;DHT22;44257;44.804;10.220;2023-08-06T06:35:56;27.20;94.00
58469;DHT22;44257;44.804;10.220;2023-08-06T06:38:22;26.90;94.60
58469;DHT22;44257;44.804;10.220;2023-08-06T06:40:56;26.50;95.10
58469;DHT22;44257;44.804;10.220;2023-08-06T06:43:23;26.20;94.60
58469;DHT22;44257;44.804;10.220;2023-08-06T06:46:07;25.70;95.20
58469;DHT22;44257;44.804;10.220;2023-08-06T06:48:34;25.20;96.00
58469;DHT22;44257;44.804;10.220;2023-08-06T06:51:00;24.80;96.70
58469;DHT22;44257;44.804;10.220;2023-08-06T06:53:25;24.50;98.30
58469;DHT22;44257;44.804;10.220;2023-08-06T06:55:55;24.40;99.90
58469;DHT22;44257;44.804;10.220;2023-08-06T06:58:20;24.20;99.90
58469;DHT22;44257;44.804;10.220;2023-08-06T07:00:49;24.10;99.00
58469;DHT22;44257;44.804;10.220;2023-08-06T07:03:15;24.00;99.90
58469;DHT22;44257;44.804;10.220;2023-08-06T07:05:42;24.00;99.90
58469;DHT22;44257;44.804;10.220;2023-08-06T07:08:08;23.90;99.90
58469;DHT22;44257;44.804;10.220;2023-08-06T07:10:34;23.90;99.50
58469;DHT22;44257;44.804;10.220;2023-08-06T07:13:00;23.90;99.90
58469;DHT22;44257;44.804;10.220;2023-08-06T07:15:26;23.90;99.90
58469;DHT22;44257;44.804;10.220;2023-08-06T07:17:52;23.80;99.90
58469;DHT22;44257;44.804;10.220;2023-08-06T07:20:17;23.80;99.90
58469;DHT22;44257;44.804;10.220;2023-08-06T07:22:44;23.80;99.90
58469;DHT22;44257;44.804;10.220;2023-08-06T07:25:10;23.90;99.90
58469;DHT22;44257;44.804;10.220;2023-08-06T07:27:36;24.00;99.90
58469;DHT22;44257;44.804;10.220;2023-08-06T07:30:02;24.10;99.90
58469;DHT22;44257;44.804;10.220;2023-08-06T07:32:28;24.20;99.90
58469;DHT22;44257;44.804;10.220;2023-08-06T07:34:55;24.30;99.90
58469;DHT22;44257;44.804;10.220;2023-08-06T07:37:25;24.60;99.90
58469;DHT22;44257;44.804;10.220;2023-08-06T07:39:51;24.80;98.90
58469;DHT22;44257;44.804;10.220;2023-08-06T07:42:17;24.90;99.30
58469;DHT22;44257;44.804;10.220;2023-08-06T07:44:51;24.90;97.70
58469;DHT22;44257;44.804;10.220;2023-08-06T07:47:17;24.90;97.30
58469;DHT22;44257;44.804;10.220;2023-08-06T07:49:43;24.90;97.60
58469;DHT22;44257;44.804;10.220;2023-08-06T07:52:09;24.80;97.60
58469;DHT22;44257;44.804;10.220;2023-08-06T07:54:34;24.90;97.90
58469;DHT22;44257;44.804;10.220;2023-08-06T07:57:00;24.90;98.80
58469;DHT22;44257;44.804;10.220;2023-08-06T07:59:26;25.00;97.80
58469;DHT22;44257;44.804;10.220;2023-08-06T08:01:52;25.00;96.80
58469;DHT22;44257;44.804;10.220;2023-08-06T08:04:17;25.00;97.20
58469;DHT22;44257;44.804;10.220;2023-08-06T08:06:45;25.10;97.30
58469;DHT22;44257;44.804;10.220;2023-08-06T08:09:13;25.00;98.00
58469;DHT22;44257;44.804;10.220;2023-08-06T08:11:40;25.20;97.80
58469;DHT22;44257;44.804;10.220;2023-08-06T08:14:06;25.30;97.50
58469;DHT22;44257;44.804;10.220;2023-08-06T08:16:32;25.30;97.80
58469;DHT22;44257;44.804;10.220;2023-08-06T08:18:58;25.40;98.50
58469;DHT22;44257;44.804;10.220;2023-08-06T08:21:24;25.70;97.60
58469;DHT22;44257;44.804;10.220;2023-08-06T08:23:51;25.90;98.30
58469;DHT22;44257;44.804;10.220;2023-08-06T08:26:17;26.20;96.70
58469;DHT22;44257;44.804;10.220;2023-08-06T08:28:42;26.40;96.50
58469;DHT22;44257;44.804;10.220;2023-08-06T08:31:09;26.40;97.90
58469;DHT22;44257;44.804;10.220;2023-08-06T08:33:35;26.60;95.90
58469;DHT22;44257;44.804;10.220;2023-08-06T08:36:01;26.70;96.40
58469;DHT22;44257;44.804;10.220;2023-08-06T08:38:27;26.80;95.80
58469;DHT22;44257;44.804;10.220;2023-08-06T08:40:54;26.90;95.40
58469;DHT22;44257;44.804;10.220;2023-08-06T08:43:23;27.10;95.40
58469;DHT22;44257;44.804;10.220;2023-08-06T08:45:53;27.30;95.10
58469;DHT22;44257;44.804;10.220;2023-08-06T08:48:24;27.50;95.50
58469;DHT22;44257;44.804;10.220;2023-08-06T08:50:50;27.70;95.10
58469;DHT22;44257;44.804;10.220;2023-08-06T08:53:17;27.90;94.70
58469;DHT22;44257;44.804;10.220;2023-08-06T08:55:46;28.20;93.20
58469;DHT22;44257;44.804;10.220;2023-08-06T08:58:13;28.40;92.20
58469;DHT22;44257;44.804;10.220;2023-08-06T09:00:42;28.40;91.10
58469;DHT22;44257;44.804;10.220;2023-08-06T09:03:09;28.10;91.50
58469;DHT22;44257;44.804;10.220;2023-08-06T09:05:35;27.90;91.90
58469;DHT22;44257;44.804;10.220;2023-08-06T09:08:05;27.90;91.90
58469;DHT22;44257;44.804;10.220;2023-08-06T09:10:31;27.80;93.30
58469;DHT22;44257;44.804;10.220;2023-08-06T09:12:58;27.90;91.70
58469;DHT22;44257;44.804;10.220;2023-08-06T09:15:25;28.00;90.00
58469;DHT22;44257;44.804;10.220;2023-08-06T09:17:52;28.00;88.20
58469;DHT22;44257;44.804;10.220;2023-08-06T09:20:18;28.00;90.30
58469;DHT22;44257;44.804;10.220;2023-08-06T09:22:44;28.20;90.60
58469;DHT22;44257;44.804;10.220;2023-08-06T09:25:11;28.60;88.30
58469;DHT22;44257;44.804;10.220;2023-08-06T09:27:39;28.80;88.40
58469;DHT22;44257;44.804;10.220;2023-08-06T09:30:06;29.00;82.30
58469;DHT22;44257;44.804;10.220;2023-08-06T09:32:46;29.10;76.50
58469;DHT22;44257;44.804;10.220;2023-08-06T09:35:19;29.10;76.00
58469;DHT22;44257;44.804;10.220;2023-08-06T09:37:45;29.20;70.90
58469;DHT22;44257;44.804;10.220;2023-08-06T09:40:30;29.20;70.60
58469;DHT22;44257;44.804;10.220;2023-08-06T09:42:56;29.30;68.80
58469;DHT22;44257;44.804;10.220;2023-08-06T09:45:24;29.30;67.70
58469;DHT22;44257;44.804;10.220;2023-08-06T09:47:57;29.30;69.60
58469;DHT22;44257;44.804;10.220;2023-08-06T09:50:23;29.40;70.10
58469;DHT22;44257;44.804;10.220;2023-08-06T09:52:55;29.60;65.40
58469;DHT22;44257;44.804;10.220;2023-08-06T09:55:21;29.70;62.90
58469;DHT22;44257;44.804;10.220;2023-08-06T09:57:49;29.80;62.40
58469;DHT22;44257;44.804;10.220;2023-08-06T10:00:16;29.80;63.60
58469;DHT22;44257;44.804;10.220;2023-08-06T10:02:45;29.90;60.60
58469;DHT22;44257;44.804;10.220;2023-08-06T10:05:11;29.90;59.60
58469;DHT22;44257;44.804;10.220;2023-08-06T10:07:38;29.70;60.70
58469;DHT22;44257;44.804;10.220;2023-08-06T10:10:06;29.70;60.50
58469;DHT22;44257;44.804;10.220;2023-08-06T10:13:05;29.80;58.70
58469;DHT22;44257;44.804;10.220;2023-08-06T10:15:32;29.80;57.00
58469;DHT22;44257;44.804;10.220;2023-08-06T10:17:59;29.80;55.50
58469;DHT22;44257;44.804;10.220;2023-08-06T10:20:26;29.60;57.30
58469;DHT22;44257;44.804;10.220;2023-08-06T10:23:04;29.50;56.20
58469;DHT22;44257;44.804;10.220;2023-08-06T10:25:35;29.50;59.10
58469;DHT22;44257;44.804;10.220;2023-08-06T10:28:10;29.60;57.90
58469;DHT22;44257;44.804;10.220;2023-08-06T10:30:45;29.80;57.40
58469;DHT22;44257;44.804;10.220;2023-08-06T10:33:11;29.90;55.80
58469;DHT22;44257;44.804;10.220;2023-08-06T10:35:46;30.00;57.20
58469;DHT22;44257;44.804;10.220;2023-08-06T10:38:24;30.00;55.40
58469;DHT22;44257;44.804;10.220;2023-08-06T10:43:32;30.00;53.70
58469;DHT22;44257;44.804;10.220;2023-08-06T10:46:01;30.00;52.90
58469;DHT22;44257;44.804;10.220;2023-08-06T10:48:40;30.10;56.70
58469;DHT22;44257;44.804;10.220;2023-08-06T10:51:11;30.20;53.40
58469;DHT22;44257;44.804;10.220;2023-08-06T10:53:41;30.10;52.70
58469;DHT22;44257;44.804;10.220;2023-08-06T10:58:40;30.10;54.30
58469;DHT22;44257;44.804;10.220;2023-08-06T11:01:06;30.10;53.10
58469;DHT22;44257;44.804;10.220;2023-08-06T11:03:33;30.20;53.40
58469;DHT22;44257;44.804;10.220;2023-08-06T11:05:59;30.30;51.70
58469;DHT22;44257;44.804;10.220;2023-08-06T11:08:27;30.50;53.50
58469;DHT22;44257;44.804;10.220;2023-08-06T11:10:53;30.60;53.30
58469;DHT22;44257;44.804;10.220;2023-08-06T11:13:21;30.60;52.20
58469;DHT22;44257;44.804;10.220;2023-08-06T11:15:47;30.70;51.30
58469;DHT22;44257;44.804;10.220;2023-08-06T11:18:13;30.50;51.90
58469;DHT22;44257;44.804;10.220;2023-08-06T11:20:39;30.40;52.00
58469;DHT22;44257;44.804;10.220;2023-08-06T11:23:05;30.50;53.50
58469;DHT22;44257;44.804;10.220;2023-08-06T11:25:36;30.60;53.30
58469;DHT22;44257;44.804;10.220;2023-08-06T11:28:02;30.60;50.60
58469;DHT22;44257;44.804;10.220;2023-08-06T11:30:27;30.60;53.20
58469;DHT22;44257;44.804;10.220;2023-08-06T11:32:53;30.70;52.70
58469;DHT22;44257;44.804;10.220;2023-08-06T11:35:19;30.70;54.10
58469;DHT22;44257;44.804;10.220;2023-08-06T11:37:46;30.70;53.90
58469;DHT22;44257;44.804;10.220;2023-08-06T11:40:12;30.80;53.50
58469;DHT22;44257;44.804;10.220;2023-08-06T11:42:40;30.80;52.60
58469;DHT22;44257;44.804;10.220;2023-08-06T11:45:06;30.70;52.80
58469;DHT22;44257;44.804;10.220;2023-08-06T11:47:38;30.70;51.60
58469;DHT22;44257;44.804;10.220;2023-08-06T11:50:06;30.60;52.30
58469;DHT22;44257;44.804;10.220;2023-08-06T11:52:32;30.60;52.00
58469;DHT22;44257;44.804;10.220;2023-08-06T11:55:05;30.70;51.30
58469;DHT22;44257;44.804;10.220;2023-08-06T11:57:34;30.80;50.80
58469;DHT22;44257;44.804;10.220;2023-08-06T12:00:13;30.90;51.50
58469;DHT22;44257;44.804;10.220;2023-08-06T12:02:43;30.90;52.70
58469;DHT22;44257;44.804;10.220;2023-08-06T12:05:14;31.20;51.30
58469;DHT22;44257;44.804;10.220;2023-08-06T12:07:45;31.20;50.40
58469;DHT22;44257;44.804;10.220;2023-08-06T12:10:15;31.10;49.30
58469;DHT22;44257;44.804;10.220;2023-08-06T12:12:41;31.00;51.80
58469;DHT22;44257;44.804;10.220;2023-08-06T12:15:08;31.10;53.30
58469;DHT22;44257;44.804;10.220;2023-08-06T12:17:36;31.10;50.00
58469;DHT22;44257;44.804;10.220;2023-08-06T12:20:03;31.10;51.10
58469;DHT22;44257;44.804;10.220;2023-08-06T12:22:30;31.20;51.10
58469;DHT22;44257;44.804;10.220;2023-08-06T12:25:01;31.30;52.30
58469;DHT22;44257;44.804;10.220;2023-08-06T12:27:29;31.50;50.90
58469;DHT22;44257;44.804;10.220;2023-08-06T12:29:54;31.60;50.70
58469;DHT22;44257;44.804;10.220;2023-08-06T12:32:20;31.60;50.70
58469;DHT22;44257;44.804;10.220;2023-08-06T12:34:47;31.60;49.50
58469;DHT22;44257;44.804;10.220;2023-08-06T12:37:13;31.50;49.50
58469;DHT22;44257;44.804;10.220;2023-08-06T12:39:39;31.50;50.40
58469;DHT22;44257;44.804;10.220;2023-08-06T12:42:05;31.60;52.20
58469;DHT22;44257;44.804;10.220;2023-08-06T12:44:33;31.70;50.80
58469;DHT22;44257;44.804;10.220;2023-08-06T12:46:59;31.80;49.70
58469;DHT22;44257;44.804;10.220;2023-08-06T12:49:25;31.90;50.30
58469;DHT22;44257;44.804;10.220;2023-08-06T12:51:52;31.80;48.80
58469;DHT22;44257;44.804;10.220;2023-08-06T12:54:21;31.60;49.50
58469;DHT22;44257;44.804;10.220;2023-08-06T12:56:47;31.60;50.00
58469;DHT22;44257;44.804;10.220;2023-08-06T12:59:15;31.70;49.50
58469;DHT22;44257;44.804;10.220;2023-08-06T13:01:41;31.70;49.60
58469;DHT22;44257;44.804;10.220;2023-08-06T13:04:07;31.70;47.70
58469;DHT22;44257;44.804;10.220;2023-08-06T13:06:33;31.60;50.30
58469;DHT22;44257;44.804;10.220;2023-08-06T13:09:09;31.80;49.00
58469;DHT22;44257;44.804;10.220;2023-08-06T13:11:38;31.90;47.30
58469;DHT22;44257;44.804;10.220;2023-08-06T13:14:07;31.90;47.20
58469;DHT22;44257;44.804;10.220;2023-08-06T13:16:35;31.90;47.80
58469;DHT22;44257;44.804;10.220;2023-08-06T13:19:02;31.80;47.20
58469;DHT22;44257;44.804;10.220;2023-08-06T13:24:03;31.60;42.30
58469;DHT22;44257;44.804;10.220;2023-08-06T13:26:30;31.60;42.00
58469;DHT22;44257;44.804;10.220;2023-08-06T13:29:00;31.50;43.70
58469;DHT22;44257;44.804;10.220;2023-08-06T13:31:26;31.70;44.60
58469;DHT22;44257;44.804;10.220;2023-08-06T13:33:53;31.90;44.30
58469;DHT22;44257;44.804;10.220;2023-08-06T13:36:21;32.00;43.70
58469;DHT22;44257;44.804;10.220;2023-08-06T13:38:47;32.10;39.10
58469;DHT22;44257;44.804;10.220;2023-08-06T13:41:13;32.10;39.80
58469;DHT22;44257;44.804;10.220;2023-08-06T13:43:39;32.00;38.60
58469;DHT22;44257;44.804;10.220;2023-08-06T13:46:05;31.80;39.40
58469;DHT22;44257;44.804;10.220;2023-08-06T13:48:31;31.90;39.20
58469;DHT22;44257;44.804;10.220;2023-08-06T13:50:56;31.90;40.40
58469;DHT22;44257;44.804;10.220;2023-08-06T13:53:22;32.00;41.80
58469;DHT22;44257;44.804;10.220;2023-08-06T13:55:48;32.00;41.00
58469;DHT22;44257;44.804;10.220;2023-08-06T13:58:14;32.00;41.80
58469;DHT22;44257;44.804;10.220;2023-08-06T14:00:39;32.00;41.90
58469;DHT22;44257;44.804;10.220;2023-08-06T14:03:05;32.20;41.90
58469;DHT22;44257;44.804;10.220;2023-08-06T14:05:32;32.20;40.00
58469;DHT22;44257;44.804;10.220;2023-08-06T14:07:58;32.20;40.70
58469;DHT22;44257;44.804;10.220;2023-08-06T14:10:25;32.20;41.30
58469;DHT22;44257;44.804;10.220;2023-08-06T14:12:51;32.20;40.80
58469;DHT22;44257;44.804;10.220;2023-08-06T14:15:18;32.20;39.30
58469;DHT22;44257;44.804;10.220;2023-08-06T14:17:44;32.20;35.60
58469;DHT22;44257;44.804;10.220;2023-08-06T14:20:10;32.20;36.20
58469;DHT22;44257;44.804;10.220;2023-08-06T14:22:37;32.20;38.10
58469;DHT22;44257;44.804;10.220;2023-08-06T14:25:04;32.20;37.20
58469;DHT22;44257;44.804;10.220;2023-08-06T14:27:30;32.20;37.60
58469;DHT22;44257;44.804;10.220;2023-08-06T14:29:56;32.00;37.60
58469;DHT22;44257;44.804;10.220;2023-08-06T14:32:21;31.90;37.70
58469;DHT22;44257;44.804;10.220;2023-08-06T14:34:47;31.90;37.90
58469;DHT22;44257;44.804;10.220;2023-08-06T14:37:13;32.00;37.20
58469;DHT22;44257;44.804;10.220;2023-08-06T14:39:39;32.10;36.70
58469;DHT22;44257;44.804;10.220;2023-08-06T14:42:05;32.00;35.60
58469;DHT22;44257;44.804;10.220;2023-08-06T14:44:31;32.00;37.60
58469;DHT22;44257;44.804;10.220;2023-08-06T14:46:57;32.00;37.80
58469;DHT22;44257;44.804;10.220;2023-08-06T14:49:23;32.10;37.40
58469;DHT22;44257;44.804;10.220;2023-08-06T14:51:49;32.20;36.80
58469;DHT22;44257;44.804;10.220;2023-08-06T14:54:15;32.20;36.20
58469;DHT22;44257;44.804;10.220;2023-08-06T14:56:41;32.20;34.50
58469;DHT22;44257;44.804;10.220;2023-08-06T14:59:06;32.10;35.80
58469;DHT22;44257;44.804;10.220;2023-08-06T15:01:32;32.00;35.10
58469;DHT22;44257;44.804;10.220;2023-08-06T15:03:59;31.90;35.70
58469;DHT22;44257;44.804;10.220;2023-08-06T15:06:24;31.90;36.00
58469;DHT22;44257;44.804;10.220;2023-08-06T15:08:50;31.90;35.50
58469;DHT22;44257;44.804;10.220;2023-08-06T15:11:16;31.90;35.00
58469;DHT22;44257;44.804;10.220;2023-08-06T15:13:42;31.80;35.70
58469;DHT22;44257;44.804;10.220;2023-08-06T15:16:08;31.90;35.20
58469;DHT22;44257;44.804;10.220;2023-08-06T15:18:34;31.90;36.20
58469;DHT22;44257;44.804;10.220;2023-08-06T15:21:00;32.00;35.30
58469;DHT22;44257;44.804;10.220;2023-08-06T15:23:25;31.90;35.20
58469;DHT22;44257;44.804;10.220;2023-08-06T15:25:51;31.90;35.70
58469;DHT22;44257;44.804;10.220;2023-08-06T15:28:17;31.90;34.10